createdAt,value
2022-12-26T00:02:11.996Z,5.18
2022-12-26T00:04:49.108Z,5.17
2022-12-26T00:07:21.283Z,5.19
2022-12-26T00:09:52.855Z,5.27
2022-12-26T00:12:21.399Z,5.21
2022-12-26T00:14:53.111Z,5.21
2022-12-26T00:17:21.736Z,5.23
2022-12-26T00:19:52.845Z,5.24
2022-12-26T00:22:21.717Z,5.24
2022-12-26T00:24:50.350Z,5.20
2022-12-26T00:27:18.944Z,5.21
2022-12-26T00:29:49.626Z,5.22
2022-12-26T00:32:18.121Z,5.27
2022-12-26T00:34:49.553Z,5.35
2022-12-26T00:37:19.668Z,5.36
2022-12-26T00:39:48.751Z,5.34
2022-12-26T00:42:17.422Z,5.34
2022-12-26T00:44:46.209Z,5.33
2022-12-26T00:47:14.787Z,5.31
2022-12-26T00:50:13.793Z,5.25
2022-12-26T00:52:33.622Z,5.25
2022-12-26T00:55:02.392Z,5.25
2022-12-26T00:57:30.985Z,5.32
2022-12-26T01:00:00.057Z,5.40
2022-12-26T01:02:40.588Z,5.38
2022-12-26T01:05:12.479Z,5.40
2022-12-26T01:08:19.797Z,5.53
2022-12-26T01:10:31.725Z,5.47
2022-12-26T01:13:00.545Z,5.43
2022-12-26T01:15:31.987Z,5.45
2022-12-26T01:18:02.210Z,5.44
2022-12-26T01:20:31.509Z,5.41
2022-12-26T01:23:01.554Z,5.44
2022-12-26T01:25:30.189Z,5.42
2022-12-26T01:28:01.784Z,5.38
2022-12-26T01:30:30.257Z,5.32
2022-12-26T01:33:01.101Z,5.25
2022-12-26T01:35:29.592Z,5.24
2022-12-26T01:38:00.365Z,5.22
2022-12-26T01:40:28.940Z,5.23
2022-12-26T01:42:59.921Z,5.18
2022-12-26T01:45:31.797Z,5.22
2022-12-26T01:48:06.960Z,5.18
2022-12-26T01:50:45.361Z,5.21
2022-12-26T01:53:24.504Z,5.19
2022-12-26T01:56:01.680Z,5.13
2022-12-26T01:58:36.199Z,5.13
2022-12-26T02:01:08.287Z,5.09
2022-12-26T02:03:57.231Z,5.09
2022-12-26T02:06:26.213Z,5.11
2022-12-26T02:09:00.203Z,5.19
2022-12-26T02:11:36.606Z,5.21
2022-12-26T02:14:08.418Z,5.20
2022-12-26T02:16:44.519Z,5.33
2022-12-26T02:19:30.608Z,5.28
2022-12-26T02:22:51.818Z,5.31
2022-12-26T02:26:11.440Z,5.36
2022-12-26T02:29:15.760Z,5.33
2022-12-26T02:31:59.959Z,5.34
2022-12-26T02:34:41.531Z,5.33
2022-12-26T02:37:33.309Z,5.32
2022-12-26T02:40:38.602Z,5.35
2022-12-26T02:43:22.556Z,5.31
2022-12-26T02:46:24.445Z,5.33
2022-12-26T02:49:10.088Z,5.33
2022-12-26T02:52:14.327Z,5.35
2022-12-26T02:55:13.173Z,5.31
2022-12-26T02:58:15.215Z,5.32
2022-12-26T03:01:07.142Z,5.35
2022-12-26T03:03:57.868Z,5.34
2022-12-26T03:06:50.968Z,5.32
2022-12-26T03:09:43.273Z,5.30
2022-12-26T03:12:49.864Z,5.31
2022-12-26T03:15:23.595Z,5.33
2022-12-26T03:17:58.128Z,5.31
2022-12-26T03:20:30.849Z,5.29
2022-12-26T03:23:09.306Z,5.33
2022-12-26T03:26:04.293Z,5.34
2022-12-26T03:28:33.118Z,5.29
2022-12-26T03:31:05.827Z,5.26
2022-12-26T03:34:06.431Z,5.30
2022-12-26T03:36:51.576Z,5.33
2022-12-26T03:39:50.119Z,5.37
2022-12-26T03:42:49.682Z,5.36
2022-12-26T03:45:53.261Z,5.37
2022-12-26T03:48:58.361Z,5.36
2022-12-26T03:51:57.641Z,5.36
2022-12-26T03:54:58.769Z,5.35
2022-12-26T03:57:53.749Z,5.38
2022-12-26T04:00:40.759Z,5.37
2022-12-26T04:03:32.704Z,5.37
2022-12-26T04:06:24.535Z,5.34
2022-12-26T04:09:18.105Z,5.34
2022-12-26T04:12:05.873Z,5.35
2022-12-26T04:15:02.981Z,5.36
2022-12-26T04:18:24.732Z,5.41
2022-12-26T04:21:06.916Z,5.43
2022-12-26T04:24:03.991Z,5.39
2022-12-26T04:26:58.514Z,5.45
2022-12-26T04:29:47.602Z,5.44
2022-12-26T04:32:50.449Z,5.51
2022-12-26T04:35:43.697Z,5.50
2022-12-26T04:38:34.449Z,5.50
2022-12-26T04:41:23.857Z,5.53
2022-12-26T04:44:06.858Z,5.57
2022-12-26T04:46:41.559Z,5.53
2022-12-26T04:49:32.957Z,5.53
2022-12-26T04:52:05.435Z,5.51
2022-12-26T04:54:34.611Z,5.52
2022-12-26T04:57:05.967Z,5.52
2022-12-26T04:59:37.764Z,5.53
2022-12-26T05:02:25.749Z,5.53
2022-12-26T05:05:15.634Z,5.57
2022-12-26T05:08:05.904Z,5.53
2022-12-26T05:10:34.662Z,5.53
2022-12-26T05:13:03.279Z,5.54
2022-12-26T05:15:52.000Z,5.54
2022-12-26T05:18:39.610Z,5.54
2022-12-26T05:21:31.331Z,5.54
2022-12-26T05:24:24.328Z,5.56
2022-12-26T05:27:22.078Z,5.58
2022-12-26T05:29:51.852Z,5.61
2022-12-26T05:32:37.661Z,5.60
2022-12-26T05:35:09.208Z,5.58
2022-12-26T05:37:37.965Z,5.62
2022-12-26T05:40:08.039Z,5.60
2022-12-26T05:42:36.934Z,5.58
2022-12-26T05:45:06.891Z,5.58
2022-12-26T05:47:35.430Z,5.56
2022-12-26T05:50:05.010Z,5.54
2022-12-26T05:52:35.060Z,5.56
2022-12-26T05:55:03.597Z,5.58
2022-12-26T05:57:32.870Z,5.55
2022-12-26T06:00:02.071Z,5.50
2022-12-26T06:02:31.911Z,5.52
2022-12-26T06:05:01.065Z,5.53
2022-12-26T06:07:30.056Z,5.49
2022-12-26T06:10:03.125Z,5.54
2022-12-26T06:12:31.696Z,5.53
2022-12-26T06:15:00.617Z,5.54
2022-12-26T06:17:29.247Z,5.53
2022-12-26T06:20:00.857Z,5.59
2022-12-26T06:22:33.338Z,5.57
2022-12-26T06:25:03.225Z,5.59
2022-12-26T06:27:31.957Z,5.61
2022-12-26T06:30:05.630Z,5.57
2022-12-26T06:32:35.129Z,5.57
2022-12-26T06:35:03.943Z,5.61
2022-12-26T06:37:34.324Z,5.62
2022-12-26T06:40:04.641Z,5.66
2022-12-26T06:42:34.151Z,5.68
2022-12-26T06:45:02.870Z,5.70
2022-12-26T06:47:32.107Z,5.71
2022-12-26T06:50:01.014Z,5.72
2022-12-26T06:52:30.121Z,5.77
2022-12-26T06:54:59.955Z,5.78
2022-12-26T06:57:30.221Z,5.80
2022-12-26T06:59:59.594Z,5.81
2022-12-26T07:02:28.876Z,5.81
2022-12-26T07:05:03.597Z,5.75
2022-12-26T07:07:32.119Z,5.81
2022-12-26T07:10:02.815Z,5.77
2022-12-26T07:12:36.217Z,5.88
2022-12-26T07:15:05.515Z,5.86
2022-12-26T07:17:34.777Z,5.90
2022-12-26T07:20:03.469Z,5.83
2022-12-26T07:22:32.218Z,5.91
2022-12-26T07:25:01.473Z,5.94
2022-12-26T07:27:31.533Z,6.00
2022-12-26T07:30:03.449Z,5.96
2022-12-26T07:32:32.098Z,6.03
2022-12-26T07:35:00.576Z,6.03
2022-12-26T07:37:32.170Z,6.01
2022-12-26T07:40:01.390Z,6.05
2022-12-26T07:42:32.637Z,6.06
2022-12-26T07:45:01.247Z,5.99
2022-12-26T07:47:33.059Z,6.08
2022-12-26T07:50:02.031Z,6.03
2022-12-26T07:52:33.822Z,6.11
2022-12-26T07:55:02.340Z,6.04
2022-12-26T07:57:50.762Z,6.16
2022-12-26T08:00:21.063Z,6.18
2022-12-26T08:02:51.715Z,6.19
2022-12-26T08:05:23.708Z,6.24
2022-12-26T08:07:52.347Z,6.15
2022-12-26T08:10:21.015Z,6.15
2022-12-26T08:12:51.114Z,6.22
2022-12-26T08:15:22.696Z,6.26
2022-12-26T08:17:58.129Z,6.23
2022-12-26T08:20:27.259Z,6.28
2022-12-26T08:25:24.425Z,6.36
2022-12-26T08:28:00.024Z,6.39
2022-12-26T08:30:31.957Z,6.50
2022-12-26T08:33:03.421Z,6.57
2022-12-26T08:35:32.182Z,6.49
2022-12-26T08:38:01.402Z,6.56
2022-12-26T08:40:43.153Z,6.58
2022-12-26T08:43:34.814Z,6.62
2022-12-26T08:46:05.234Z,6.65
2022-12-26T08:48:35.587Z,6.65
2022-12-26T08:51:08.736Z,6.66
2022-12-26T08:53:38.781Z,6.66
2022-12-26T08:56:11.764Z,6.67
2022-12-26T08:58:41.757Z,6.70
2022-12-26T09:01:14.052Z,6.72
2022-12-26T09:03:43.713Z,6.68
2022-12-26T09:06:15.436Z,6.79
2022-12-26T09:08:45.024Z,6.80
2022-12-26T09:11:17.068Z,6.79
2022-12-26T09:13:48.554Z,6.83
2022-12-26T09:16:23.394Z,6.88
2022-12-26T09:19:00.111Z,6.84
2022-12-26T09:21:30.296Z,6.85
2022-12-26T09:24:02.626Z,6.90
2022-12-26T09:26:31.841Z,6.97
2022-12-26T09:29:02.083Z,6.99
2022-12-26T09:31:33.985Z,6.95
2022-12-26T09:34:04.055Z,7.02
2022-12-26T09:36:37.955Z,7.03
2022-12-26T09:39:08.603Z,7.02
2022-12-26T09:42:10.030Z,7.13
2022-12-26T09:44:55.922Z,7.20
2022-12-26T09:47:34.832Z,7.28
2022-12-26T09:50:12.598Z,7.27
2022-12-26T09:52:57.729Z,7.28
2022-12-26T09:55:43.717Z,7.33
2022-12-26T09:58:31.633Z,7.32
2022-12-26T10:01:11.413Z,7.29
2022-12-26T10:03:44.789Z,7.32
2022-12-26T10:06:26.693Z,7.36
2022-12-26T10:09:37.686Z,7.46
2022-12-26T10:12:41.701Z,7.48
2022-12-26T10:15:39.597Z,7.46
2022-12-26T10:18:30.293Z,7.55
2022-12-26T10:21:28.746Z,7.54
2022-12-26T10:24:03.831Z,7.56
2022-12-26T10:26:38.549Z,7.64
2022-12-26T10:29:20.664Z,7.63
2022-12-26T10:31:59.037Z,7.67
2022-12-26T10:34:44.352Z,7.69
2022-12-26T10:37:24.324Z,7.71
2022-12-26T10:40:19.024Z,7.75
2022-12-26T10:42:54.238Z,7.71
2022-12-26T10:45:39.265Z,7.71
2022-12-26T10:48:08.820Z,7.74
2022-12-26T10:50:40.465Z,7.77
2022-12-26T10:53:16.981Z,7.70
2022-12-26T10:55:46.035Z,7.75
2022-12-26T10:58:20.610Z,7.83
2022-12-26T11:00:50.343Z,7.87
2022-12-26T11:03:21.363Z,7.89
2022-12-26T11:06:11.382Z,7.94
2022-12-26T11:08:49.446Z,7.95
2022-12-26T11:11:25.900Z,7.98
2022-12-26T11:14:02.142Z,7.87
2022-12-26T11:16:35.380Z,7.91
2022-12-26T11:19:05.295Z,7.85
2022-12-26T11:21:35.690Z,7.84
2022-12-26T11:24:20.717Z,7.82
2022-12-26T11:26:50.112Z,7.73
2022-12-26T11:29:23.152Z,7.85
2022-12-26T11:31:59.255Z,7.86
2022-12-26T11:34:34.997Z,7.89
2022-12-26T11:37:11.120Z,7.92
2022-12-26T11:39:40.905Z,8.00
2022-12-26T11:42:19.950Z,7.95
2022-12-26T11:44:52.629Z,8.00
2022-12-26T11:47:26.848Z,8.13
2022-12-26T11:50:04.296Z,8.14
2022-12-26T11:52:39.211Z,8.15
2022-12-26T11:55:33.715Z,8.18
2022-12-26T11:58:17.106Z,8.21
2022-12-26T12:01:07.135Z,8.56
2022-12-26T12:03:45.263Z,8.60
2022-12-26T12:06:50.615Z,8.70
2022-12-26T12:09:42.964Z,8.80
2022-12-26T12:12:23.016Z,8.85
2022-12-26T12:15:10.166Z,9.10
2022-12-26T12:17:57.129Z,9.19
2022-12-26T12:20:39.714Z,9.11
2022-12-26T12:23:54.735Z,8.96
2022-12-26T12:26:37.289Z,8.87
2022-12-26T12:29:32.361Z,8.84
2022-12-26T12:32:15.007Z,8.78
2022-12-26T12:35:27.262Z,8.76
2022-12-26T12:38:29.272Z,8.62
2022-12-26T12:41:27.417Z,8.74
2022-12-26T12:44:14.665Z,8.86
2022-12-26T12:46:54.410Z,8.98
2022-12-26T12:49:47.462Z,8.91
2022-12-26T12:52:41.941Z,8.85
2022-12-26T12:55:43.349Z,8.91
2022-12-26T12:58:27.605Z,8.64
2022-12-26T13:01:08.429Z,8.76
2022-12-26T13:03:48.991Z,8.49
2022-12-26T13:06:25.232Z,8.65
2022-12-26T13:09:05.616Z,8.80
2022-12-26T13:11:39.754Z,8.69
2022-12-26T13:14:17.901Z,8.74
2022-12-26T13:16:53.448Z,8.62
2022-12-26T13:19:29.475Z,8.64
2022-12-26T13:22:07.558Z,8.65
2022-12-26T13:24:40.974Z,8.60
2022-12-26T13:27:22.498Z,8.46
2022-12-26T13:29:52.812Z,8.34
2022-12-26T13:32:27.102Z,8.35
2022-12-26T13:35:01.464Z,8.16
2022-12-26T13:38:00.813Z,8.04
2022-12-26T13:40:33.464Z,7.98
2022-12-26T13:43:28.233Z,8.06
2022-12-26T13:46:02.473Z,8.09
2022-12-26T13:49:06.282Z,8.15
2022-12-26T13:52:22.396Z,8.08
2022-12-26T13:55:43.398Z,8.07
2022-12-26T13:58:46.171Z,8.09
2022-12-26T14:01:37.749Z,8.10
2022-12-26T14:04:39.566Z,8.08
2022-12-26T14:07:32.728Z,8.05
2022-12-26T14:10:18.002Z,8.15
2022-12-26T14:13:07.062Z,8.21
2022-12-26T14:15:56.135Z,8.19
2022-12-26T14:18:46.697Z,8.20
2022-12-26T14:21:36.444Z,8.21
2022-12-26T14:24:24.238Z,8.21
2022-12-26T14:27:25.021Z,8.20
2022-12-26T14:30:08.853Z,8.11
2022-12-26T14:32:49.317Z,8.13
2022-12-26T14:35:33.126Z,8.13
2022-12-26T14:38:24.195Z,8.12
2022-12-26T14:41:04.243Z,8.11
2022-12-26T14:43:38.568Z,7.96
2022-12-26T14:47:02.396Z,7.93
2022-12-26T14:49:44.325Z,7.76
2022-12-26T14:52:44.623Z,7.86
2022-12-26T14:55:50.617Z,7.98
2022-12-26T14:58:38.372Z,7.95
2022-12-26T15:01:49.443Z,7.94
2022-12-26T15:05:14.595Z,7.87
2022-12-26T15:08:22.940Z,7.87
2022-12-26T15:11:57.069Z,7.28
2022-12-26T15:15:17.060Z,6.96
2022-12-26T15:18:17.427Z,6.83
2022-12-26T15:21:41.098Z,6.67
2022-12-26T15:28:51.534Z,6.59
2022-12-26T15:31:50.932Z,6.61
2022-12-26T15:34:58.624Z,6.77
2022-12-26T15:38:10.770Z,6.78
2022-12-26T15:40:46.325Z,6.61
2022-12-26T15:43:54.553Z,6.52
2022-12-26T15:46:33.577Z,6.36
2022-12-26T15:49:37.496Z,6.17
2022-12-26T15:52:28.944Z,6.00
2022-12-26T15:55:42.770Z,5.90
2022-12-26T15:58:42.826Z,5.86
2022-12-26T16:01:16.474Z,5.83
2022-12-26T16:03:58.531Z,5.81
2022-12-26T16:06:45.378Z,5.78
2022-12-26T16:09:37.870Z,5.75
2022-12-26T16:12:30.991Z,5.40
2022-12-26T16:15:21.108Z,5.18
2022-12-26T16:17:58.500Z,5.10
2022-12-26T16:20:59.235Z,5.09
2022-12-26T16:23:37.625Z,4.96
2022-12-26T16:26:19.932Z,4.92
2022-12-26T16:28:50.094Z,4.77
2022-12-26T16:31:24.319Z,4.75
2022-12-26T16:34:00.394Z,4.75
2022-12-26T16:36:36.678Z,4.85
2022-12-26T16:39:11.871Z,4.96
2022-12-26T16:42:17.664Z,4.94
2022-12-26T16:44:47.905Z,4.92
2022-12-26T16:47:42.345Z,4.84
2022-12-26T16:50:26.661Z,4.75
2022-12-26T16:53:12.108Z,4.71
2022-12-26T16:55:59.099Z,4.73
2022-12-26T16:58:39.281Z,4.66
2022-12-26T17:01:14.707Z,4.53
2022-12-26T17:03:54.143Z,4.39
2022-12-26T17:06:31.571Z,4.38
2022-12-26T17:09:10.484Z,4.32
2022-12-26T17:11:50.301Z,4.35
2022-12-26T17:14:29.925Z,4.22
2022-12-26T17:17:06.422Z,4.30
2022-12-26T17:19:38.467Z,4.33
2022-12-26T17:22:38.192Z,4.27
2022-12-26T17:25:35.139Z,4.33
2022-12-26T17:28:35.091Z,4.34
2022-12-26T17:31:24.915Z,4.36
2022-12-26T17:34:06.791Z,4.29
2022-12-26T17:39:50.144Z,4.37
2022-12-26T17:42:22.443Z,4.46
2022-12-26T17:44:59.467Z,4.57
2022-12-26T17:48:03.316Z,4.60
2022-12-26T17:51:02.458Z,4.51
2022-12-26T17:53:40.939Z,4.46
2022-12-26T17:56:21.579Z,4.48
2022-12-26T17:59:02.123Z,4.51
2022-12-26T18:01:49.468Z,4.47
2022-12-26T18:04:27.243Z,4.38
2022-12-26T18:07:06.294Z,4.40
2022-12-26T18:09:41.006Z,4.34
2022-12-26T18:12:15.051Z,4.21
2022-12-26T18:14:53.545Z,4.26
2022-12-26T18:17:32.310Z,4.06
2022-12-26T18:20:09.412Z,4.16
2022-12-26T18:22:43.035Z,4.15
2022-12-26T18:25:29.265Z,4.16
2022-12-26T18:28:03.288Z,4.19
2022-12-26T18:30:41.488Z,4.02
2022-12-26T18:33:24.721Z,4.05
2022-12-26T18:36:29.929Z,3.93
2022-12-26T18:38:59.821Z,3.90
2022-12-26T18:41:45.236Z,3.93
2022-12-26T18:44:19.686Z,3.78
2022-12-26T18:47:18.615Z,3.80
2022-12-26T18:49:54.621Z,3.89
2022-12-26T18:52:53.203Z,3.82
2022-12-26T18:55:38.106Z,3.80
2022-12-26T18:58:07.785Z,3.79
2022-12-26T19:00:44.182Z,3.78
2022-12-26T19:03:34.875Z,3.70
2022-12-26T19:06:10.237Z,3.56
2022-12-26T19:08:49.854Z,3.53
2022-12-26T19:11:26.090Z,3.51
2022-12-26T19:17:07.372Z,3.32
2022-12-26T19:19:45.619Z,3.45
2022-12-26T19:22:31.455Z,3.45
2022-12-26T19:25:31.727Z,3.43
2022-12-26T19:28:05.923Z,3.48
2022-12-26T19:30:42.243Z,3.30
2022-12-26T19:33:18.832Z,3.37
2022-12-26T19:36:00.587Z,3.47
2022-12-26T19:38:35.950Z,3.45
2022-12-26T19:41:15.460Z,3.45
2022-12-26T19:44:02.550Z,3.47
2022-12-26T19:46:31.164Z,3.39
2022-12-26T19:49:28.719Z,3.41
2022-12-26T19:52:06.718Z,3.36
2022-12-26T19:54:37.086Z,3.43
2022-12-26T19:57:12.167Z,3.38
2022-12-26T20:02:33.221Z,3.42
2022-12-26T20:05:06.451Z,3.46
2022-12-26T20:07:45.106Z,3.42
2022-12-26T20:10:15.769Z,3.38
2022-12-26T20:13:19.230Z,3.36
2022-12-26T20:15:54.064Z,3.30
2022-12-26T20:18:24.679Z,3.29
2022-12-26T20:20:58.444Z,3.30
2022-12-26T20:23:33.102Z,3.33
2022-12-26T20:26:09.293Z,3.42
2022-12-26T20:28:46.601Z,3.56
2022-12-26T20:31:22.829Z,3.67
2022-12-26T20:34:00.380Z,3.65
2022-12-26T20:36:35.687Z,3.61
2022-12-26T20:39:13.575Z,3.45
2022-12-26T20:41:43.786Z,3.40
2022-12-26T20:44:24.691Z,3.46
2022-12-26T20:47:02.875Z,3.37
2022-12-26T20:49:32.110Z,3.32
2022-12-26T20:52:01.218Z,3.32
2022-12-26T20:54:33.838Z,3.18
2022-12-26T20:57:03.039Z,3.09
2022-12-26T20:59:33.191Z,3.10
2022-12-26T21:02:02.007Z,3.05
2022-12-26T21:04:34.237Z,3.07
2022-12-26T21:07:02.821Z,3.15
2022-12-26T21:09:31.615Z,3.08
2022-12-26T21:12:01.033Z,2.96
2022-12-26T21:14:30.505Z,3.01
2022-12-26T21:17:00.969Z,2.93
2022-12-26T21:19:30.731Z,2.93
2022-12-26T21:21:59.416Z,3.05
2022-12-26T21:24:31.056Z,2.96
2022-12-26T21:27:00.195Z,3.04
2022-12-26T21:29:32.055Z,3.12
2022-12-26T21:32:05.353Z,3.14
2022-12-26T21:34:35.742Z,3.16
2022-12-26T21:37:22.442Z,3.11
2022-12-26T21:39:50.980Z,3.12
2022-12-26T21:42:19.974Z,3.14
2022-12-26T21:44:51.177Z,3.10
2022-12-26T21:47:21.823Z,3.01
2022-12-26T21:49:50.598Z,3.01
2022-12-26T21:52:19.030Z,3.04
2022-12-26T21:55:05.112Z,3.08
2022-12-26T21:57:35.235Z,3.16
2022-12-26T22:00:04.606Z,3.21
2022-12-26T22:02:56.435Z,3.13
2022-12-26T22:05:28.580Z,3.15
2022-12-26T22:08:00.551Z,3.26
2022-12-26T22:10:51.071Z,3.23
2022-12-26T22:13:21.715Z,3.08
2022-12-26T22:16:07.115Z,3.17
2022-12-26T22:18:41.685Z,3.20
2022-12-26T22:21:13.944Z,3.20
2022-12-26T22:23:44.027Z,3.17
2022-12-26T22:26:15.840Z,3.15
2022-12-26T22:28:45.614Z,3.23
2022-12-26T22:31:21.619Z,3.15
2022-12-26T22:33:56.836Z,3.11
2022-12-26T22:36:26.512Z,3.03
2022-12-26T22:38:58.141Z,3.07
2022-12-26T22:41:27.402Z,3.05
2022-12-26T22:43:57.784Z,3.08
2022-12-26T22:46:27.569Z,3.05
2022-12-26T22:49:00.346Z,3.07
2022-12-26T22:51:29.173Z,2.95
2022-12-26T22:54:02.373Z,2.89
2022-12-26T22:56:31.995Z,2.92
2022-12-26T22:59:08.649Z,2.84
2022-12-26T23:01:37.270Z,2.76
2022-12-26T23:04:08.653Z,2.83
2022-12-26T23:06:40.064Z,2.88
2022-12-26T23:09:16.473Z,2.84
2022-12-26T23:12:06.155Z,2.81
2022-12-26T23:14:35.549Z,3.05
2022-12-26T23:17:09.902Z,3.05
2022-12-26T23:20:05.659Z,3.09
2022-12-26T23:22:35.332Z,3.17
2022-12-26T23:25:04.263Z,3.10
2022-12-26T23:27:50.372Z,3.09
2022-12-26T23:30:19.220Z,3.00
2022-12-26T23:32:51.948Z,3.00
2022-12-26T23:35:23.944Z,2.93
2022-12-26T23:37:52.880Z,2.97
2022-12-26T23:40:23.588Z,2.83
2022-12-26T23:42:52.292Z,2.87
2022-12-26T23:45:21.042Z,2.88
2022-12-26T23:47:49.927Z,2.80
2022-12-26T23:50:19.227Z,2.77
2022-12-26T23:52:49.256Z,2.85
2022-12-26T23:55:18.045Z,2.94
2022-12-26T23:57:46.759Z,2.89
